sensor_id;sensor_type;location;lat;lon;timestamp;pressure;altitude;pressure_sealevel;temperature;humidity
7333;BME280;3707;43.618;25.342;2023-12-20T00:00:35;100436.25;;;6.04;100.00
7333;BME280;3707;43.618;25.342;2023-12-20T00:03:03;100431.09;;;6.04;100.00
7333;BME280;3707;43.618;25.342;2023-12-20T00:05:30;100421.75;;;6.06;100.00
7333;BME280;3707;43.618;25.342;2023-12-20T00:07:57;100424.16;;;6.01;100.00
7333;BME280;3707;43.618;25.342;2023-12-20T00:10:24;100436.13;;;6.01;100.00
7333;BME280;3707;43.618;25.342;2023-12-20T00:12:51;100409.41;;;5.97;100.00
7333;BME280;3707;43.618;25.342;2023-12-20T00:15:19;100423.78;;;6.14;100.00
7333;BME280;3707;43.618;25.342;2023-12-20T00:17:46;100328.56;;;5.47;100.00
7333;BME280;3707;43.618;25.342;2023-12-20T00:20:12;100436.03;;;5.97;100.00
7333;BME280;3707;43.618;25.342;2023-12-20T00:22:39;100401.63;;;5.75;100.00
7333;BME280;3707;43.618;25.342;2023-12-20T00:25:07;100423.56;;;5.86;100.00
7333;BME280;3707;43.618;25.342;2023-12-20T00:27:33;100417.44;;;5.84;100.00
7333;BME280;3707;43.618;25.342;2023-12-20T00:30:00;100417.94;;;5.96;100.00
7333;BME280;3707;43.618;25.342;2023-12-20T00:32:28;100413.78;;;5.99;100.00
7333;BME280;3707;43.618;25.342;2023-12-20T00:34:55;100382.19;;;5.81;100.00
7333;BME280;3707;43.618;25.342;2023-12-20T00:37:22;100396.78;;;5.82;100.00
7333;BME280;3707;43.618;25.342;2023-12-20T00:39:49;100401.38;;;5.89;100.00
7333;BME280;3707;43.618;25.342;2023-12-20T00:42:16;100398.06;;;5.92;100.00
7333;BME280;3707;43.618;25.342;2023-12-20T00:44:42;100289.91;;;5.46;100.00
7333;BME280;3707;43.618;25.342;2023-12-20T00:47:09;100390.00;;;6.05;100.00
7333;BME280;3707;43.618;25.342;2023-12-20T00:49:38;100389.81;;;6.01;100.00
7333;BME280;3707;43.618;25.342;2023-12-20T00:52:05;100379.91;;;5.89;100.00
7333;BME280;3707;43.618;25.342;2023-12-20T00:54:32;100372.91;;;5.85;100.00
7333;BME280;3707;43.618;25.342;2023-12-20T00:56:59;100367.50;;;5.79;100.00
7333;BME280;3707;43.618;25.342;2023-12-20T00:59:26;100358.97;;;5.80;100.00
7333;BME280;3707;43.618;25.342;2023-12-20T01:01:53;100354.69;;;5.80;100.00
7333;BME280;3707;43.618;25.342;2023-12-20T01:04:19;100357.19;;;5.79;100.00
7333;BME280;3707;43.618;25.342;2023-12-20T01:06:48;100350.56;;;5.84;100.00
7333;BME280;3707;43.618;25.342;2023-12-20T01:09:14;100340.03;;;5.78;100.00
7333;BME280;3707;43.618;25.342;2023-12-20T01:11:41;100337.38;;;5.76;100.00
7333;BME280;3707;43.618;25.342;2023-12-20T01:14:08;100317.09;;;5.62;100.00
7333;BME280;3707;43.618;25.342;2023-12-20T01:16:35;100321.78;;;5.72;100.00
7333;BME280;3707;43.618;25.342;2023-12-20T01:19:01;100319.19;;;5.72;100.00
7333;BME280;3707;43.618;25.342;2023-12-20T01:21:28;100321.78;;;5.72;100.00
7333;BME280;3707;43.618;25.342;2023-12-20T01:23:56;100322.03;;;5.78;100.00
7333;BME280;3707;43.618;25.342;2023-12-20T01:26:23;100292.19;;;5.61;100.00
7333;BME280;3707;43.618;25.342;2023-12-20T01:28:50;100323.75;;;5.79;100.00
7333;BME280;3707;43.618;25.342;2023-12-20T01:31:17;100304.31;;;5.63;100.00
7333;BME280;3707;43.618;25.342;2023-12-20T01:33:43;100313.03;;;5.67;100.00
7333;BME280;3707;43.618;25.342;2023-12-20T01:36:10;100241.81;;;5.21;100.00
7333;BME280;3707;43.618;25.342;2023-12-20T01:38:37;100314.34;;;5.57;100.00
7333;BME280;3707;43.618;25.342;2023-12-20T01:41:07;100305.00;;;5.59;100.00
7333;BME280;3707;43.618;25.342;2023-12-20T01:43:33;100304.41;;;5.44;100.00
7333;BME280;3707;43.618;25.342;2023-12-20T01:46:00;100301.78;;;5.42;100.00
7333;BME280;3707;43.618;25.342;2023-12-20T01:48:29;100295.53;;;5.36;100.00
7333;BME280;3707;43.618;25.342;2023-12-20T01:50:58;100288.66;;;5.35;100.00
7333;BME280;3707;43.618;25.342;2023-12-20T01:53:27;100290.97;;;5.29;100.00
7333;BME280;3707;43.618;25.342;2023-12-20T01:55:56;100288.09;;;5.21;100.00
7333;BME280;3707;43.618;25.342;2023-12-20T01:58:26;100283.34;;;5.10;100.00
7333;BME280;3707;43.618;25.342;2023-12-20T02:00:53;100272.69;;;5.00;100.00
7333;BME280;3707;43.618;25.342;2023-12-20T02:03:21;100255.94;;;4.88;100.00
7333;BME280;3707;43.618;25.342;2023-12-20T02:05:48;100258.53;;;4.89;100.00
7333;BME280;3707;43.618;25.342;2023-12-20T02:08:14;100262.53;;;5.04;100.00
7333;BME280;3707;43.618;25.342;2023-12-20T02:10:41;100262.53;;;5.04;100.00
7333;BME280;3707;43.618;25.342;2023-12-20T02:13:08;100251.38;;;5.03;100.00
7333;BME280;3707;43.618;25.342;2023-12-20T02:15:36;100241.06;;;5.02;100.00
7333;BME280;3707;43.618;25.342;2023-12-20T02:18:04;100250.00;;;5.11;100.00
7333;BME280;3707;43.618;25.342;2023-12-20T02:20:31;100250.25;;;5.17;100.00
7333;BME280;3707;43.618;25.342;2023-12-20T02:22:59;100245.94;;;5.16;100.00
7333;BME280;3707;43.618;25.342;2023-12-20T02:25:26;100203.91;;;4.93;100.00
7333;BME280;3707;43.618;25.342;2023-12-20T02:27:53;100239.53;;;5.07;100.00
7333;BME280;3707;43.618;25.342;2023-12-20T02:30:20;100235.03;;;5.01;100.00
7333;BME280;3707;43.618;25.342;2023-12-20T02:32:47;100240.09;;;4.99;100.00
7333;BME280;3707;43.618;25.342;2023-12-20T02:35:15;100235.38;;;4.88;100.00
7333;BME280;3707;43.618;25.342;2023-12-20T02:37:41;100227.47;;;4.83;100.00
7333;BME280;3707;43.618;25.342;2023-12-20T02:40:10;100222.22;;;4.80;100.00
7333;BME280;3707;43.618;25.342;2023-12-20T02:42:37;100222.38;;;4.63;100.00
7333;BME280;3707;43.618;25.342;2023-12-20T02:45:04;100206.22;;;4.44;100.00
7333;BME280;3707;43.618;25.342;2023-12-20T02:47:31;100218.09;;;4.42;100.00
7333;BME280;3707;43.618;25.342;2023-12-20T02:49:58;100204.69;;;4.29;100.00
7333;BME280;3707;43.618;25.342;2023-12-20T02:52:25;100190.03;;;4.26;100.00
7333;BME280;3707;43.618;25.342;2023-12-20T02:54:51;100197.19;;;4.33;100.00
7333;BME280;3707;43.618;25.342;2023-12-20T02:57:19;100204.25;;;4.39;100.00
7333;BME280;3707;43.618;25.342;2023-12-20T02:59:46;100180.59;;;4.25;100.00
7333;BME280;3707;43.618;25.342;2023-12-20T03:02:13;100191.28;;;4.36;100.00
7333;BME280;3707;43.618;25.342;2023-12-20T03:04:40;100190.28;;;4.32;100.00
7333;BME280;3707;43.618;25.342;2023-12-20T03:07:07;100188.41;;;4.28;100.00
7333;BME280;3707;43.618;25.342;2023-12-20T03:09:34;100197.25;;;4.35;100.00
7333;BME280;3707;43.618;25.342;2023-12-20T03:12:00;100187.16;;;4.39;100.00
7333;BME280;3707;43.618;25.342;2023-12-20T03:14:28;100193.56;;;4.49;100.00
7333;BME280;3707;43.618;25.342;2023-12-20T03:16:55;100184.66;;;4.41;100.00
7333;BME280;3707;43.618;25.342;2023-12-20T03:19:22;100190.69;;;4.41;100.00
7333;BME280;3707;43.618;25.342;2023-12-20T03:21:49;100180.53;;;4.44;100.00
7333;BME280;3707;43.618;25.342;2023-12-20T03:24:15;100184.31;;;4.53;100.00
7333;BME280;3707;43.618;25.342;2023-12-20T03:26:42;100182.34;;;4.47;100.00
7333;BME280;3707;43.618;25.342;2023-12-20T03:29:09;100166.63;;;4.39;100.00
7333;BME280;3707;43.618;25.342;2023-12-20T03:31:37;100176.03;;;4.60;100.00
7333;BME280;3707;43.618;25.342;2023-12-20T03:34:04;100180.78;;;4.50;100.00
7333;BME280;3707;43.618;25.342;2023-12-20T03:36:31;100176.09;;;4.40;100.00
7333;BME280;3707;43.618;25.342;2023-12-20T03:38:57;100151.44;;;4.23;100.00
7333;BME280;3707;43.618;25.342;2023-12-20T03:41:24;100170.53;;;4.30;100.00
7333;BME280;3707;43.618;25.342;2023-12-20T03:43:51;100167.16;;;4.31;100.00
7333;BME280;3707;43.618;25.342;2023-12-20T03:46:18;100134.72;;;4.12;100.00
7333;BME280;3707;43.618;25.342;2023-12-20T03:48:46;100154.91;;;4.25;100.00
7333;BME280;3707;43.618;25.342;2023-12-20T03:51:12;100142.66;;;4.18;100.00
7333;BME280;3707;43.618;25.342;2023-12-20T03:53:39;100133.47;;;4.23;100.00
7333;BME280;3707;43.618;25.342;2023-12-20T03:56:07;100133.47;;;4.23;100.00
7333;BME280;3707;43.618;25.342;2023-12-20T03:58:33;100133.47;;;4.23;100.00
7333;BME280;3707;43.618;25.342;2023-12-20T04:01:00;100127.78;;;4.30;100.00
7333;BME280;3707;43.618;25.342;2023-12-20T04:03:28;100119.97;;;4.49;100.00
7333;BME280;3707;43.618;25.342;2023-12-20T04:05:56;100118.13;;;4.45;100.00
7333;BME280;3707;43.618;25.342;2023-12-20T04:08:22;100118.69;;;4.38;100.00
7333;BME280;3707;43.618;25.342;2023-12-20T04:10:49;100128.09;;;4.38;100.00
7333;BME280;3707;43.618;25.342;2023-12-20T04:13:16;100127.41;;;4.42;100.00
7333;BME280;3707;43.618;25.342;2023-12-20T04:15:43;100123.53;;;4.74;100.00
7333;BME280;3707;43.618;25.342;2023-12-20T04:18:09;100108.91;;;4.95;100.00
7333;BME280;3707;43.618;25.342;2023-12-20T04:20:36;100112.06;;;4.88;100.00
7333;BME280;3707;43.618;25.342;2023-12-20T04:23:04;100118.59;;;4.80;100.00
7333;BME280;3707;43.618;25.342;2023-12-20T04:25:31;100113.75;;;4.65;100.00
7333;BME280;3707;43.618;25.342;2023-12-20T04:27:58;100102.75;;;4.47;100.00
7333;BME280;3707;43.618;25.342;2023-12-20T04:30:25;100021.09;;;3.94;100.00
7333;BME280;3707;43.618;25.342;2023-12-20T04:32:51;100119.81;;;4.45;100.00
7333;BME280;3707;43.618;25.342;2023-12-20T04:35:18;100116.16;;;4.40;100.00
7333;BME280;3707;43.618;25.342;2023-12-20T04:37:45;100082.75;;;4.18;100.00
7333;BME280;3707;43.618;25.342;2023-12-20T04:40:14;100111.84;;;4.39;100.00
7333;BME280;3707;43.618;25.342;2023-12-20T04:42:40;100078.50;;;4.18;100.00
7333;BME280;3707;43.618;25.342;2023-12-20T04:45:08;100103.72;;;4.28;100.00
7333;BME280;3707;43.618;25.342;2023-12-20T04:47:34;100095.66;;;4.19;100.00
7333;BME280;3707;43.618;25.342;2023-12-20T04:50:01;100103.28;;;4.18;100.00
7333;BME280;3707;43.618;25.342;2023-12-20T04:52:28;100099.44;;;4.07;100.00
7333;BME280;3707;43.618;25.342;2023-12-20T04:54:55;100099.81;;;3.95;100.00
7333;BME280;3707;43.618;25.342;2023-12-20T04:57:23;100102.94;;;3.88;100.00
7333;BME280;3707;43.618;25.342;2023-12-20T04:59:50;100073.72;;;3.64;100.00
7333;BME280;3707;43.618;25.342;2023-12-20T05:02:17;100091.03;;;3.69;100.00
7333;BME280;3707;43.618;25.342;2023-12-20T05:04:43;100071.63;;;3.55;100.00
7333;BME280;3707;43.618;25.342;2023-12-20T05:07:10;100092.81;;;3.72;100.00
7333;BME280;3707;43.618;25.342;2023-12-20T05:09:37;100090.38;;;3.75;100.00
7333;BME280;3707;43.618;25.342;2023-12-20T05:12:04;100074.38;;;3.60;100.00
7333;BME280;3707;43.618;25.342;2023-12-20T05:14:33;100094.38;;;3.68;100.00
7333;BME280;3707;43.618;25.342;2023-12-20T05:16:59;100090.81;;;3.65;100.00
7333;BME280;3707;43.618;25.342;2023-12-20T05:19:26;100081.94;;;3.57;100.00
7333;BME280;3707;43.618;25.342;2023-12-20T05:21:53;100084.22;;;3.50;100.00
7333;BME280;3707;43.618;25.342;2023-12-20T05:24:20;100085.09;;;3.51;100.00
7333;BME280;3707;43.618;25.342;2023-12-20T05:26:47;100084.31;;;3.52;100.00
7333;BME280;3707;43.618;25.342;2023-12-20T05:29:13;100082.75;;;3.56;100.00
7333;BME280;3707;43.618;25.342;2023-12-20T05:31:41;100068.84;;;3.50;100.00
7333;BME280;3707;43.618;25.342;2023-12-20T05:34:08;100085.34;;;3.57;100.00
7333;BME280;3707;43.618;25.342;2023-12-20T05:36:35;100081.78;;;3.54;100.00
7333;BME280;3707;43.618;25.342;2023-12-20T05:39:02;100092.19;;;3.57;100.00
7333;BME280;3707;43.618;25.342;2023-12-20T05:41:30;100087.75;;;3.53;100.00
7333;BME280;3707;43.618;25.342;2023-12-20T05:43:56;100086.13;;;3.55;100.00
7333;BME280;3707;43.618;25.342;2023-12-20T05:46:24;100085.31;;;3.56;100.00
7333;BME280;3707;43.618;25.342;2023-12-20T05:48:53;100084.34;;;3.54;100.00
7333;BME280;3707;43.618;25.342;2023-12-20T05:51:19;100079.78;;;3.46;100.00
7333;BME280;3707;43.618;25.342;2023-12-20T05:53:46;100075.63;;;3.48;100.00
7333;BME280;3707;43.618;25.342;2023-12-20T05:56:15;100074.97;;;3.54;100.00
7333;BME280;3707;43.618;25.342;2023-12-20T05:58:42;100077.81;;;3.60;100.00
7333;BME280;3707;43.618;25.342;2023-12-20T06:01:09;100077.31;;;3.69;100.00
7333;BME280;3707;43.618;25.342;2023-12-20T06:03:35;100070.75;;;3.75;100.00
7333;BME280;3707;43.618;25.342;2023-12-20T06:06:06;100064.25;;;3.83;100.00
7333;BME280;3707;43.618;25.342;2023-12-20T06:08:33;100073.19;;;3.93;100.00
7333;BME280;3707;43.618;25.342;2023-12-20T06:11:00;100064.38;;;4.07;100.00
7333;BME280;3707;43.618;25.342;2023-12-20T06:13:27;100071.50;;;4.14;100.00
7333;BME280;3707;43.618;25.342;2023-12-20T06:15:54;100070.69;;;4.15;100.00
7333;BME280;3707;43.618;25.342;2023-12-20T06:18:21;100065.09;;;4.25;100.00
7333;BME280;3707;43.618;25.342;2023-12-20T06:20:48;100064.72;;;4.37;100.00
7333;BME280;3707;43.618;25.342;2023-12-20T06:23:16;100066.78;;;4.25;100.00
7333;BME280;3707;43.618;25.342;2023-12-20T06:25:43;100075.50;;;4.08;100.00
7333;BME280;3707;43.618;25.342;2023-12-20T06:28:10;100065.63;;;3.96;100.00
7333;BME280;3707;43.618;25.342;2023-12-20T06:30:39;100058.88;;;3.98;100.00
7333;BME280;3707;43.618;25.342;2023-12-20T06:33:06;100059.19;;;4.06;100.00
7333;BME280;3707;43.618;25.342;2023-12-20T06:35:35;100058.25;;;4.24;100.00
7333;BME280;3707;43.618;25.342;2023-12-20T06:38:02;100056.94;;;4.35;100.00
7333;BME280;3707;43.618;25.342;2023-12-20T06:40:30;100059.50;;;4.56;100.00
7333;BME280;3707;43.618;25.342;2023-12-20T06:42:57;100067.31;;;4.59;100.00
7333;BME280;3707;43.618;25.342;2023-12-20T06:45:24;100003.91;;;4.34;100.00
7333;BME280;3707;43.618;25.342;2023-12-20T06:47:51;100038.53;;;4.68;100.00
7333;BME280;3707;43.618;25.342;2023-12-20T06:50:20;100048.78;;;4.90;100.00
7333;BME280;3707;43.618;25.342;2023-12-20T06:52:46;100050.31;;;4.85;100.00
7333;BME280;3707;43.618;25.342;2023-12-20T06:55:13;100049.75;;;4.93;100.00
7333;BME280;3707;43.618;25.342;2023-12-20T06:57:41;100047.75;;;5.09;100.00
7333;BME280;3707;43.618;25.342;2023-12-20T07:00:10;100047.22;;;5.17;100.00
7333;BME280;3707;43.618;25.342;2023-12-20T07:02:37;100046.94;;;5.33;100.00
7333;BME280;3707;43.618;25.342;2023-12-20T07:05:04;100032.56;;;5.38;100.00
7333;BME280;3707;43.618;25.342;2023-12-20T07:07:31;100055.38;;;5.55;100.00
7333;BME280;3707;43.618;25.342;2023-12-20T07:09:58;100057.66;;;5.71;100.00
7333;BME280;3707;43.618;25.342;2023-12-20T07:12:25;100024.06;;;5.66;100.00
7333;BME280;3707;43.618;25.342;2023-12-20T07:14:53;100060.47;;;6.02;100.00
7333;BME280;3707;43.618;25.342;2023-12-20T07:17:20;100071.41;;;5.96;100.00
7333;BME280;3707;43.618;25.342;2023-12-20T07:19:47;100051.47;;;5.89;100.00
7333;BME280;3707;43.618;25.342;2023-12-20T07:22:14;100059.44;;;5.97;100.00
7333;BME280;3707;43.618;25.342;2023-12-20T07:24:41;100066.88;;;5.89;100.00
7333;BME280;3707;43.618;25.342;2023-12-20T07:27:07;100058.13;;;5.84;100.00
7333;BME280;3707;43.618;25.342;2023-12-20T07:29:34;100050.47;;;5.86;100.00
7333;BME280;3707;43.618;25.342;2023-12-20T07:32:03;100049.03;;;5.94;100.00
7333;BME280;3707;43.618;25.342;2023-12-20T07:34:30;100045.00;;;5.77;100.00
7333;BME280;3707;43.618;25.342;2023-12-20T07:36:56;100041.63;;;5.78;100.00
7333;BME280;3707;43.618;25.342;2023-12-20T07:39:23;100034.91;;;5.83;100.00
7333;BME280;3707;43.618;25.342;2023-12-20T07:41:50;100015.38;;;5.63;100.00
7333;BME280;3707;43.618;25.342;2023-12-20T07:44:17;100010.38;;;5.67;100.00
7333;BME280;3707;43.618;25.342;2023-12-20T07:46:43;100022.69;;;6.01;100.00
7333;BME280;3707;43.618;25.342;2023-12-20T07:49:12;100006.75;;;6.13;100.00
7333;BME280;3707;43.618;25.342;2023-12-20T07:51:38;100011.66;;;6.05;100.00
7333;BME280;3707;43.618;25.342;2023-12-20T07:54:05;100019.25;;;6.27;100.00
7333;BME280;3707;43.618;25.342;2023-12-20T07:56:33;100023.53;;;6.28;100.00
7333;BME280;3707;43.618;25.342;2023-12-20T07:59:00;100004.84;;;6.07;100.00
7333;BME280;3707;43.618;25.342;2023-12-20T08:01:26;100024.25;;;6.24;100.00
7333;BME280;3707;43.618;25.342;2023-12-20T08:03:53;100007.56;;;6.38;100.00
7333;BME280;3707;43.618;25.342;2023-12-20T08:06:21;100018.22;;;6.51;100.00
7333;BME280;3707;43.618;25.342;2023-12-20T08:08:49;100023.75;;;6.63;100.00
7333;BME280;3707;43.618;25.342;2023-12-20T08:11:15;100027.38;;;6.69;100.00
7333;BME280;3707;43.618;25.342;2023-12-20T08:13:43;100017.47;;;6.83;100.00
7333;BME280;3707;43.618;25.342;2023-12-20T08:16:09;100010.31;;;6.73;100.00
7333;BME280;3707;43.618;25.342;2023-12-20T08:18:38;100011.56;;;6.87;100.00
7333;BME280;3707;43.618;25.342;2023-12-20T08:21:05;99997.88;;;6.88;100.00
7333;BME280;3707;43.618;25.342;2023-12-20T08:23:34;100011.59;;;7.18;100.00
7333;BME280;3707;43.618;25.342;2023-12-20T08:26:04;100005.53;;;7.16;100.00
7333;BME280;3707;43.618;25.342;2023-12-20T08:28:31;100005.16;;;7.34;100.00
7333;BME280;3707;43.618;25.342;2023-12-20T08:30:57;99997.63;;;7.43;100.00
7333;BME280;3707;43.618;25.342;2023-12-20T08:33:24;99988.59;;;7.59;100.00
7333;BME280;3707;43.618;25.342;2023-12-20T08:35:51;99989.00;;;7.75;100.00
7333;BME280;3707;43.618;25.342;2023-12-20T08:38:18;99969.91;;;7.69;100.00
7333;BME280;3707;43.618;25.342;2023-12-20T08:40:46;99990.28;;;7.92;100.00
7333;BME280;3707;43.618;25.342;2023-12-20T08:43:13;99986.41;;;7.74;100.00
7333;BME280;3707;43.618;25.342;2023-12-20T08:45:40;99972.66;;;7.40;100.00
7333;BME280;3707;43.618;25.342;2023-12-20T08:48:07;99979.91;;;7.57;100.00
7333;BME280;3707;43.618;25.342;2023-12-20T08:50:34;99956.13;;;7.67;100.00
7333;BME280;3707;43.618;25.342;2023-12-20T08:53:02;99968.50;;;7.47;100.00
7333;BME280;3707;43.618;25.342;2023-12-20T08:55:28;99963.91;;;7.35;100.00
7333;BME280;3707;43.618;25.342;2023-12-20T08:57:58;99956.91;;;7.64;100.00
7333;BME280;3707;43.618;25.342;2023-12-20T09:00:24;99942.38;;;7.68;100.00
7333;BME280;3707;43.618;25.342;2023-12-20T09:02:53;99947.06;;;7.84;100.00
7333;BME280;3707;43.618;25.342;2023-12-20T09:05:19;99947.84;;;7.80;100.00
7333;BME280;3707;43.618;25.342;2023-12-20T09:07:46;99933.88;;;7.72;100.00
7333;BME280;3707;43.618;25.342;2023-12-20T09:10:13;99923.97;;;7.54;100.00
7333;BME280;3707;43.618;25.342;2023-12-20T09:12:40;99916.84;;;7.80;100.00
7333;BME280;3707;43.618;25.342;2023-12-20T09:15:09;99920.13;;;7.73;100.00
7333;BME280;3707;43.618;25.342;2023-12-20T09:17:36;99916.34;;;7.59;100.00
7333;BME280;3707;43.618;25.342;2023-12-20T09:20:03;99911.25;;;7.62;100.00
7333;BME280;3707;43.618;25.342;2023-12-20T09:22:32;99874.66;;;7.78;100.00
7333;BME280;3707;43.618;25.342;2023-12-20T09:24:59;99860.59;;;7.65;100.00
7333;BME280;3707;43.618;25.342;2023-12-20T09:27:25;99869.09;;;7.60;100.00
7333;BME280;3707;43.618;25.342;2023-12-20T09:29:52;99889.72;;;7.60;100.00
7333;BME280;3707;43.618;25.342;2023-12-20T09:32:20;99878.44;;;7.93;100.00
7333;BME280;3707;43.618;25.342;2023-12-20T09:34:47;99877.84;;;8.05;100.00
7333;BME280;3707;43.618;25.342;2023-12-20T09:37:14;99840.22;;;8.16;100.00
7333;BME280;3707;43.618;25.342;2023-12-20T09:39:41;99852.81;;;8.41;100.00
7333;BME280;3707;43.618;25.342;2023-12-20T09:42:07;99873.03;;;8.62;100.00
7333;BME280;3707;43.618;25.342;2023-12-20T09:44:34;99847.47;;;8.32;100.00
7333;BME280;3707;43.618;25.342;2023-12-20T09:47:03;99861.34;;;8.37;100.00
7333;BME280;3707;43.618;25.342;2023-12-20T09:49:32;99855.44;;;8.43;100.00
7333;BME280;3707;43.618;25.342;2023-12-20T09:52:00;99846.78;;;8.41;100.00
7333;BME280;3707;43.618;25.342;2023-12-20T09:54:28;99845.38;;;8.16;100.00
7333;BME280;3707;43.618;25.342;2023-12-20T09:56:56;99834.06;;;8.10;100.00
7333;BME280;3707;43.618;25.342;2023-12-20T09:59:22;99824.91;;;8.25;100.00
7333;BME280;3707;43.618;25.342;2023-12-20T10:01:50;99823.25;;;8.27;100.00
7333;BME280;3707;43.618;25.342;2023-12-20T10:04:21;99823.84;;;8.58;100.00
7333;BME280;3707;43.618;25.342;2023-12-20T10:06:49;99807.56;;;8.62;100.00
7333;BME280;3707;43.618;25.342;2023-12-20T10:09:17;99815.00;;;8.91;100.00
7333;BME280;3707;43.618;25.342;2023-12-20T10:11:44;99806.63;;;9.08;100.00
7333;BME280;3707;43.618;25.342;2023-12-20T10:14:12;99806.03;;;9.22;100.00
7333;BME280;3707;43.618;25.342;2023-12-20T10:16:40;99809.94;;;9.52;100.00
7333;BME280;3707;43.618;25.342;2023-12-20T10:19:07;99807.72;;;9.79;100.00
7333;BME280;3707;43.618;25.342;2023-12-20T10:21:34;99796.63;;;9.89;100.00
7333;BME280;3707;43.618;25.342;2023-12-20T10:24:02;99795.13;;;10.06;100.00
7333;BME280;3707;43.618;25.342;2023-12-20T10:26:29;99789.63;;;9.82;100.00
7333;BME280;3707;43.618;25.342;2023-12-20T10:28:59;99779.44;;;9.94;100.00
7333;BME280;3707;43.618;25.342;2023-12-20T10:31:27;99773.75;;;10.19;100.00
7333;BME280;3707;43.618;25.342;2023-12-20T10:33:56;99769.56;;;10.32;100.00
7333;BME280;3707;43.618;25.342;2023-12-20T10:36:24;99765.19;;;10.26;100.00
7333;BME280;3707;43.618;25.342;2023-12-20T10:38:52;99763.22;;;10.09;100.00
7333;BME280;3707;43.618;25.342;2023-12-20T10:41:25;99737.28;;;10.06;100.00
7333;BME280;3707;43.618;25.342;2023-12-20T10:43:55;99754.06;;;10.36;100.00
7333;BME280;3707;43.618;25.342;2023-12-20T10:46:22;99761.09;;;10.50;99.85
7333;BME280;3707;43.618;25.342;2023-12-20T10:48:53;99761.00;;;10.39;98.67
7333;BME280;3707;43.618;25.342;2023-12-20T10:51:20;99750.53;;;10.31;100.00
7333;BME280;3707;43.618;25.342;2023-12-20T10:53:48;99752.34;;;10.38;100.00
7333;BME280;3707;43.618;25.342;2023-12-20T10:56:16;99712.19;;;9.99;100.00
7333;BME280;3707;43.618;25.342;2023-12-20T10:58:45;99748.75;;;10.27;100.00
7333;BME280;3707;43.618;25.342;2023-12-20T11:01:13;99747.53;;;9.96;100.00
7333;BME280;3707;43.618;25.342;2023-12-20T11:03:44;99731.19;;;10.01;100.00
7333;BME280;3707;43.618;25.342;2023-12-20T11:06:22;99733.78;;;10.02;100.00
7333;BME280;3707;43.618;25.342;2023-12-20T11:08:58;99733.97;;;10.16;100.00
7333;BME280;3707;43.618;25.342;2023-12-20T11:11:37;99717.63;;;10.21;100.00
7333;BME280;3707;43.618;25.342;2023-12-20T11:14:15;99697.84;;;10.29;100.00
7333;BME280;3707;43.618;25.342;2023-12-20T11:16:45;99693.41;;;10.16;100.00
7333;BME280;3707;43.618;25.342;2023-12-20T11:19:12;99704.72;;;10.27;100.00
7333;BME280;3707;43.618;25.342;2023-12-20T11:21:40;99700.13;;;10.02;100.00
7333;BME280;3707;43.618;25.342;2023-12-20T11:24:07;99697.91;;;10.38;100.00
7333;BME280;3707;43.618;25.342;2023-12-20T11:26:33;99704.06;;;10.50;100.00
7333;BME280;3707;43.618;25.342;2023-12-20T11:29:31;99697.81;;;10.26;100.00
7333;BME280;3707;43.618;25.342;2023-12-20T11:32:00;99698.00;;;10.49;100.00
7333;BME280;3707;43.618;25.342;2023-12-20T11:34:27;99607.03;;;10.17;100.00
7333;BME280;3707;43.618;25.342;2023-12-20T11:36:58;99675.94;;;11.00;100.00
7333;BME280;3707;43.618;25.342;2023-12-20T11:39:26;99643.88;;;10.87;100.00
7333;BME280;3707;43.618;25.342;2023-12-20T11:41:55;99680.47;;;11.29;97.29
7333;BME280;3707;43.618;25.342;2023-12-20T11:44:23;99678.72;;;11.28;94.11
7333;BME280;3707;43.618;25.342;2023-12-20T11:46:52;99678.63;;;11.13;94.29
7333;BME280;3707;43.618;25.342;2023-12-20T11:49:23;99589.41;;;10.88;94.72
7333;BME280;3707;43.618;25.342;2023-12-20T11:51:50;99664.91;;;11.32;94.36
7333;BME280;3707;43.618;25.342;2023-12-20T11:54:17;99637.22;;;11.34;93.15
7333;BME280;3707;43.618;25.342;2023-12-20T11:56:44;99660.69;;;11.54;93.30
7333;BME280;3707;43.618;25.342;2023-12-20T11:59:11;99629.47;;;11.36;92.86
7333;BME280;3707;43.618;25.342;2023-12-20T12:01:38;99613.03;;;11.43;92.58
7333;BME280;3707;43.618;25.342;2023-12-20T12:04:06;99641.69;;;11.70;91.86
7333;BME280;3707;43.618;25.342;2023-12-20T12:06:33;99646.75;;;11.34;92.18
7333;BME280;3707;43.618;25.342;2023-12-20T12:09:00;99615.44;;;11.01;95.15
7333;BME280;3707;43.618;25.342;2023-12-20T12:11:29;99638.03;;;11.21;96.08
7333;BME280;3707;43.618;25.342;2023-12-20T12:13:56;99644.03;;;11.11;97.16
7333;BME280;3707;43.618;25.342;2023-12-20T12:16:23;99639.72;;;11.15;97.92
7333;BME280;3707;43.618;25.342;2023-12-20T12:18:56;99639.56;;;10.89;100.00
7333;BME280;3707;43.618;25.342;2023-12-20T12:21:24;99626.56;;;10.80;100.00
7333;BME280;3707;43.618;25.342;2023-12-20T12:23:51;99592.75;;;10.68;100.00
7333;BME280;3707;43.618;25.342;2023-12-20T12:26:18;99616.19;;;10.84;100.00
7333;BME280;3707;43.618;25.342;2023-12-20T12:28:45;99611.16;;;11.10;100.00
7333;BME280;3707;43.618;25.342;2023-12-20T12:31:15;99609.41;;;11.05;100.00
7333;BME280;3707;43.618;25.342;2023-12-20T12:33:42;99614.66;;;11.12;100.00
7333;BME280;3707;43.618;25.342;2023-12-20T12:36:10;99607.78;;;11.28;100.00
7333;BME280;3707;43.618;25.342;2023-12-20T12:38:38;99574.84;;;11.10;100.00
7333;BME280;3707;43.618;25.342;2023-12-20T12:41:05;99563.59;;;11.11;99.04
7333;BME280;3707;43.618;25.342;2023-12-20T12:43:32;99599.19;;;11.45;99.02
7333;BME280;3707;43.618;25.342;2023-12-20T12:46:00;99597.47;;;11.40;100.00
7333;BME280;3707;43.618;25.342;2023-12-20T12:48:27;99600.03;;;11.35;100.00
7333;BME280;3707;43.618;25.342;2023-12-20T12:50:54;99575.69;;;11.06;100.00
7333;BME280;3707;43.618;25.342;2023-12-20T12:53:25;99594.72;;;11.05;100.00
7333;BME280;3707;43.618;25.342;2023-12-20T12:55:53;99572.06;;;10.72;100.00
7333;BME280;3707;43.618;25.342;2023-12-20T12:58:21;99588.50;;;10.76;100.00
7333;BME280;3707;43.618;25.342;2023-12-20T13:00:50;99590.91;;;10.49;100.00
7333;BME280;3707;43.618;25.342;2023-12-20T13:03:17;99585.59;;;10.30;100.00